Terminal Aerodrome Forecast
Issued by NWS Green Bay, WI

Home | Current Version | Previous Version | Text Only | Print | Product List | Glossary On
Versions: 1 2 3 4 5 6 7 8 9 10 11 12 13 14 15 16 17 18 19 20 21 22 23 24 25 26 27 28 29 30 31 32 33 34
000
FTUS43 KGRB 312300
TAFGRB
TAF
KGRB 312335Z 0100/0124 25005KT P6SM SCT050 BKN250
     FM010200 VRB03KT P6SM SCT080
     FM010900 VRB03KT 4SM BR SCT250
     FM011300 22004KT P6SM SCT080
     FM011800 22007KT P6SM VCSH BKN050=

USA.gov is the U.S. government's official web portal to all federal, state and local government web resources and services.